ASV903 RKSS-RKPC
Flight info
| Callsign | ASV903 |
|---|---|
| Flight time | 0h 44m |
| Altitude | 32000 |
| Route | BULTI2Z BULTI Y711 DOTOL DOTOL2M |
| Aircraft | A321/M-SDE3FGHIRWY/LB1 |
Departure
| Time | 2025-09-08 00:20 |
|---|---|
| Airport | Gimpo International Airport (RKSS) |
Arrival
| Time | 2025-09-08 01:05 |
|---|---|
| Airport | Jeju International Airport (RKPC) |
| Time | Latitude | Longitude | Altitude | Speed | Heading |
|---|---|---|---|---|---|
| 2025-09-07 23:32 | 37.55781 | 126.80249 | 67 ft | 0 kts | 49° |
| 2025-09-08 00:08 | 37.55776 | 126.80242 | 59 ft | 2 kts | 47° |
| 2025-09-08 00:08 | 37.55748 | 126.80208 | 58 ft | 2 kts | 45° |
| 2025-09-08 00:08 | 37.55736 | 126.80194 | 61 ft | 3 kts | 20° |
| 2025-09-08 00:09 | 37.55699 | 126.80208 | 57 ft | 0 kts | 315° |
| 2025-09-08 00:12 | 37.55704 | 126.80203 | 57 ft | 2 kts | 315° |
| 2025-09-08 00:12 | 37.55753 | 126.80141 | 63 ft | 7 kts | 315° |
| 2025-09-08 00:13 | 37.55894 | 126.79950 | 60 ft | 11 kts | 292° |
| 2025-09-08 00:13 | 37.55922 | 126.79741 | 59 ft | 13 kts | 279° |
| 2025-09-08 00:14 | 37.55937 | 126.79625 | 62 ft | 14 kts | 279° |
| 2025-09-08 00:14 | 37.56042 | 126.79416 | 63 ft | 15 kts | 315° |
| 2025-09-08 00:15 | 37.56199 | 126.79217 | 57 ft | 17 kts | 314° |
| 2025-09-08 00:15 | 37.56369 | 126.79005 | 62 ft | 18 kts | 315° |
| 2025-09-08 00:16 | 37.56547 | 126.78782 | 64 ft | 18 kts | 315° |
| 2025-09-08 00:16 | 37.56733 | 126.78546 | 64 ft | 20 kts | 315° |
| 2025-09-08 00:16 | 37.56831 | 126.78425 | 60 ft | 20 kts | 316° |
| 2025-09-08 00:17 | 37.57124 | 126.78057 | 58 ft | 13 kts | 315° |
| 2025-09-08 00:18 | 37.57072 | 126.77864 | 56 ft | 13 kts | 204° |
| 2025-09-08 00:18 | 37.56907 | 126.78033 | 57 ft | 45 kts | 135° |
| 2025-09-08 00:19 | 37.55833 | 126.79388 | 61 ft | 164 kts | 135° |
| 2025-09-08 00:19 | 37.54158 | 126.81529 | 1196 ft | 170 kts | 136° |
| 2025-09-08 00:19 | 37.53291 | 126.82611 | 1525 ft | 185 kts | 136° |
| 2025-09-08 00:20 | 37.51240 | 126.85153 | 1920 ft | 229 kts | 136° |
| 2025-09-08 00:20 | 37.48317 | 126.87331 | 2648 ft | 262 kts | 163° |
| 2025-09-08 00:21 | 37.42928 | 126.89447 | 4767 ft | 275 kts | 162° |
| 2025-09-08 00:22 | 37.39311 | 126.91120 | 5897 ft | 281 kts | 147° |
| 2025-09-08 00:22 | 37.36374 | 126.94387 | 7141 ft | 285 kts | 139° |
| 2025-09-08 00:23 | 37.33376 | 126.97782 | 7965 ft | 294 kts | 140° |
| 2025-09-08 00:23 | 37.30325 | 127.01210 | 8017 ft | 294 kts | 140° |
| 2025-09-08 00:24 | 37.27278 | 127.04639 | 8014 ft | 294 kts | 139° |
| 2025-09-08 00:24 | 37.25755 | 127.06355 | 7997 ft | 294 kts | 139° |
| 2025-09-08 00:24 | 37.22714 | 127.09789 | 7994 ft | 294 kts | 139° |
| 2025-09-08 00:25 | 37.18061 | 127.15032 | 9720 ft | 306 kts | 141° |
| 2025-09-08 00:26 | 37.14618 | 127.18339 | 10400 ft | 326 kts | 158° |
| 2025-09-08 00:26 | 37.10023 | 127.19501 | 10760 ft | 351 kts | 184° |
| 2025-09-08 00:27 | 37.05124 | 127.19030 | 11775 ft | 354 kts | 198° |
| 2025-09-08 00:27 | 37.02849 | 127.17921 | 11959 ft | 350 kts | 212° |
| 2025-09-08 00:28 | 36.97420 | 127.12021 | 12032 ft | 345 kts | 226° |
| 2025-09-08 00:28 | 36.93937 | 127.07900 | 12034 ft | 345 kts | 225° |
| 2025-09-08 00:28 | 36.92181 | 127.05834 | 12355 ft | 348 kts | 225° |
| 2025-09-08 00:29 | 36.86836 | 126.99556 | 14110 ft | 356 kts | 225° |
| 2025-09-08 00:30 | 36.83208 | 126.95298 | 15188 ft | 359 kts | 225° |
| 2025-09-08 00:30 | 36.79552 | 126.91006 | 16246 ft | 363 kts | 225° |
| 2025-09-08 00:31 | 36.75856 | 126.86677 | 17325 ft | 366 kts | 224° |
| 2025-09-08 00:31 | 36.73836 | 126.84727 | 17853 ft | 370 kts | 213° |
| 2025-09-08 00:31 | 36.68912 | 126.82701 | 18784 ft | 383 kts | 188° |
| 2025-09-08 00:32 | 36.63520 | 126.82828 | 19637 ft | 391 kts | 183° |
| 2025-09-08 00:33 | 36.52519 | 126.83254 | 21250 ft | 401 kts | 184° |
| 2025-09-08 00:33 | 36.46914 | 126.83465 | 21992 ft | 405 kts | 184° |
| 2025-09-08 00:34 | 36.41246 | 126.83680 | 22710 ft | 410 kts | 184° |
| 2025-09-08 00:34 | 36.38389 | 126.83733 | 23075 ft | 409 kts | 188° |
| 2025-09-08 00:35 | 36.32699 | 126.83129 | 23719 ft | 413 kts | 190° |
| 2025-09-08 00:35 | 36.26951 | 126.82495 | 24252 ft | 417 kts | 190° |
| 2025-09-08 00:36 | 36.21142 | 126.81863 | 24732 ft | 422 kts | 190° |
| 2025-09-08 00:37 | 36.07346 | 126.80365 | 25843 ft | 432 kts | 189° |
| 2025-09-08 00:39 | 35.86019 | 126.78067 | 27495 ft | 447 kts | 189° |
| 2025-09-08 00:41 | 35.57654 | 126.75000 | 29483 ft | 463 kts | 189° |
| 2025-09-08 00:43 | 35.35153 | 126.72599 | 29955 ft | 464 kts | 189° |
| 2025-09-08 00:44 | 35.12587 | 126.70195 | 29950 ft | 464 kts | 188° |
| 2025-09-08 00:47 | 34.83691 | 126.67126 | 29671 ft | 451 kts | 188° |
| 2025-09-08 00:48 | 34.67112 | 126.65382 | 24008 ft | 479 kts | 188° |
| 2025-09-08 00:48 | 34.60564 | 126.64697 | 22723 ft | 467 kts | 188° |
| 2025-09-08 00:49 | 34.51064 | 126.63697 | 20596 ft | 451 kts | 188° |
| 2025-09-08 00:50 | 34.44844 | 126.63046 | 19269 ft | 441 kts | 188° |
| 2025-09-08 00:50 | 34.38790 | 126.62420 | 17916 ft | 432 kts | 188° |
| 2025-09-08 00:51 | 34.32863 | 126.61801 | 16455 ft | 423 kts | 188° |
| 2025-09-08 00:51 | 34.27054 | 126.61193 | 15116 ft | 415 kts | 188° |
| 2025-09-08 00:52 | 34.21347 | 126.60597 | 13920 ft | 408 kts | 188° |
| 2025-09-08 00:52 | 34.15779 | 126.60021 | 13105 ft | 388 kts | 188° |
| 2025-09-08 00:52 | 34.13195 | 126.59763 | 12728 ft | 358 kts | 188° |
| 2025-09-08 00:53 | 34.06365 | 126.59067 | 11500 ft | 307 kts | 188° |
| 2025-09-08 00:54 | 34.00162 | 126.58439 | 10796 ft | 294 kts | 184° |
| 2025-09-08 00:54 | 33.98126 | 126.58733 | 10557 ft | 298 kts | 168° |
| 2025-09-08 00:55 | 33.94275 | 126.60660 | 10112 ft | 300 kts | 159° |
| 2025-09-08 00:55 | 33.92363 | 126.61672 | 9790 ft | 299 kts | 159° |
| 2025-09-08 00:56 | 33.86676 | 126.64663 | 8708 ft | 295 kts | 159° |
| 2025-09-08 00:56 | 33.82939 | 126.66631 | 8005 ft | 292 kts | 159° |
| 2025-09-08 00:56 | 33.81123 | 126.67586 | 7663 ft | 291 kts | 159° |
| 2025-09-08 00:57 | 33.73893 | 126.71382 | 6315 ft | 287 kts | 159° |
| 2025-09-08 00:58 | 33.72065 | 126.72343 | 5957 ft | 286 kts | 159° |
| 2025-09-08 00:58 | 33.68434 | 126.74254 | 5273 ft | 283 kts | 159° |
| 2025-09-08 00:59 | 33.64751 | 126.74360 | 4610 ft | 265 kts | 211° |
| 2025-09-08 00:59 | 33.62460 | 126.71237 | 4003 ft | 245 kts | 240° |
| 2025-09-08 01:00 | 33.60742 | 126.67829 | 3401 ft | 233 kts | 240° |
| 2025-09-08 01:00 | 33.59088 | 126.64597 | 2819 ft | 222 kts | 240° |
| 2025-09-08 01:00 | 33.58292 | 126.63040 | 2541 ft | 217 kts | 239° |
| 2025-09-08 01:01 | 33.55999 | 126.58562 | 1739 ft | 194 kts | 239° |
| 2025-09-08 01:02 | 33.54724 | 126.56076 | 1290 ft | 163 kts | 239° |
| 2025-09-08 01:02 | 33.53677 | 126.54034 | 936 ft | 161 kts | 238° |
| 2025-09-08 01:03 | 33.52507 | 126.51754 | 508 ft | 159 kts | 239° |
| 2025-09-08 01:03 | 33.51349 | 126.49483 | 136 ft | 156 kts | 239° |
| 2025-09-08 01:04 | 33.50540 | 126.47920 | 135 ft | 63 kts | 237° |
| 2025-09-08 01:04 | 33.50401 | 126.47734 | 136 ft | 14 kts | 175° |
| 2025-09-08 01:04 | 33.50329 | 126.47889 | 135 ft | 13 kts | 65° |
| 2025-09-08 01:05 | 33.50481 | 126.48196 | 135 ft | 16 kts | 59° |
| 2025-09-08 01:06 | 33.50603 | 126.48428 | 134 ft | 16 kts | 57° |
| 2025-09-08 01:06 | 33.50529 | 126.48602 | 135 ft | 13 kts | 103° |
| 2025-09-08 01:07 | 33.50617 | 126.48803 | 135 ft | 15 kts | 58° |
| 2025-09-08 01:07 | 33.50679 | 126.48959 | 135 ft | 3 kts | 129° |
| 2025-09-08 01:08 | 33.50628 | 126.48993 | 135 ft | 0 kts | 150° |